createdAt,value
2018-11-29T00:00:19.909Z,7.70
2018-11-29T00:05:16.059Z,7.70
2018-11-29T00:10:11.461Z,7.80
2018-11-29T00:20:12.533Z,7.80
2018-11-29T00:22:40.422Z,7.80
2018-11-29T00:25:10.043Z,7.90
2018-11-29T00:30:10.228Z,7.90
2018-11-29T00:35:07.226Z,8.00
2018-11-29T00:37:34.954Z,8.00
2018-11-29T00:42:30.345Z,7.90
2018-11-29T00:44:58.147Z,8.00
2018-11-29T00:47:25.865Z,8.00
2018-11-29T00:49:53.645Z,8.00
2018-11-29T00:52:21.363Z,8.00
2018-11-29T00:54:49.117Z,8.00
2018-11-29T00:57:16.850Z,7.90
2018-11-29T00:59:44.562Z,8.00
2018-11-29T01:04:39.979Z,8.00
2018-11-29T01:07:07.640Z,8.00
2018-11-29T01:09:35.384Z,8.00
2018-11-29T01:12:03.078Z,8.00
2018-11-29T01:14:30.835Z,8.00
2018-11-29T01:16:58.551Z,8.10
2018-11-29T01:19:26.314Z,8.10
2018-11-29T01:21:54.012Z,8.10
2018-11-29T01:29:16.962Z,8.10
2018-11-29T01:31:44.685Z,8.10
2018-11-29T01:34:12.469Z,8.20
2018-11-29T01:39:08.778Z,8.10
2018-11-29T01:41:36.658Z,8.10
2018-11-29T01:44:04.540Z,8.10
2018-11-29T01:48:59.801Z,8.20
2018-11-29T01:51:27.545Z,8.20
2018-11-29T01:53:55.253Z,8.20
2018-11-29T01:56:23.035Z,8.20
2018-11-29T01:58:50.754Z,8.20
2018-11-29T02:01:18.476Z,8.20
2018-11-29T02:03:46.127Z,8.20
2018-11-29T02:08:41.426Z,8.20
2018-11-29T02:11:09.173Z,8.20
2018-11-29T02:13:36.945Z,8.20
2018-11-29T02:18:32.368Z,8.20
2018-11-29T02:21:01.942Z,8.20
2018-11-29T02:23:29.684Z,8.20
2018-11-29T02:25:57.452Z,8.20
2018-11-29T02:28:25.147Z,8.20
2018-11-29T02:30:52.877Z,8.30
2018-11-29T02:33:21.468Z,8.20
2018-11-29T02:35:49.185Z,8.20
2018-11-29T02:40:44.561Z,8.30
2018-11-29T02:43:12.359Z,8.30
2018-11-29T02:45:40.152Z,8.30
2018-11-29T02:48:07.920Z,8.30
2018-11-29T02:50:35.686Z,8.30
2018-11-29T02:53:03.444Z,8.30
2018-11-29T02:57:58.786Z,8.30
2018-11-29T03:00:26.537Z,8.30
2018-11-29T03:02:54.201Z,8.30
2018-11-29T03:10:22.827Z,8.30
2018-11-29T03:12:50.490Z,8.30
2018-11-29T03:15:18.244Z,8.40
2018-11-29T03:17:45.970Z,8.40
2018-11-29T03:20:14.219Z,8.40
2018-11-29T03:22:41.946Z,8.40
2018-11-29T03:32:36.776Z,8.40
2018-11-29T03:37:32.244Z,8.40
2018-11-29T03:40:00.044Z,8.50
2018-11-29T03:42:27.801Z,8.50
2018-11-29T03:44:55.554Z,8.50
2018-11-29T03:49:50.994Z,8.50
2018-11-29T03:52:18.685Z,8.50
2018-11-29T03:54:46.442Z,8.50
2018-11-29T03:57:14.143Z,8.50
2018-11-29T03:59:41.914Z,8.50
2018-11-29T04:04:37.203Z,8.60
2018-11-29T04:07:05.721Z,8.60
2018-11-29T04:09:33.502Z,8.60
2018-11-29T04:12:01.193Z,8.60
2018-11-29T04:16:56.538Z,8.60
2018-11-29T04:19:24.323Z,8.60
2018-11-29T04:21:52.055Z,8.50
2018-11-29T04:26:47.380Z,8.60
2018-11-29T04:31:44.100Z,8.60
2018-11-29T04:34:11.882Z,8.60
2018-11-29T04:36:39.595Z,8.70
2018-11-29T04:39:07.500Z,8.60
2018-11-29T04:41:35.530Z,8.70
2018-11-29T04:44:03.406Z,8.70
2018-11-29T04:46:51.987Z,8.60
2018-11-29T04:49:19.820Z,8.70
2018-11-29T04:51:47.632Z,8.70
2018-11-29T04:54:15.385Z,8.70
2018-11-29T04:56:43.126Z,8.70
2018-11-29T04:59:10.869Z,8.80
2018-11-29T05:01:38.688Z,8.70
2018-11-29T05:04:06.743Z,8.70
2018-11-29T05:06:34.513Z,8.70
2018-11-29T05:09:02.439Z,8.70
2018-11-29T05:11:30.191Z,8.70
2018-11-29T05:13:57.894Z,8.70
2018-11-29T05:16:25.603Z,8.70
2018-11-29T05:21:21.019Z,8.70
2018-11-29T05:23:48.715Z,8.70
2018-11-29T05:26:16.490Z,8.70
2018-11-29T05:28:44.217Z,8.70
2018-11-29T05:33:39.613Z,8.60
2018-11-29T05:36:07.342Z,8.50
2018-11-29T05:38:35.023Z,8.50
2018-11-29T05:43:30.632Z,8.50
2018-11-29T05:45:58.463Z,8.50
2018-11-29T05:48:26.202Z,8.50
2018-11-29T05:50:54.052Z,8.50
2018-11-29T05:53:21.823Z,8.50
2018-11-29T05:55:49.532Z,8.40
2018-11-29T06:00:44.961Z,8.40
2018-11-29T06:15:31.249Z,8.40
2018-11-29T06:20:26.733Z,8.50
2018-11-29T06:25:22.299Z,8.40
2018-11-29T06:27:50.160Z,8.40
2018-11-29T06:30:19.232Z,8.40
2018-11-29T06:32:47.641Z,8.40
2018-11-29T06:35:17.548Z,8.40
2018-11-29T06:40:13.926Z,8.40
2018-11-29T06:42:41.717Z,8.40
2018-11-29T06:45:16.677Z,8.40
2018-11-29T06:47:44.609Z,8.40
2018-11-29T06:52:41.001Z,8.40
2018-11-29T07:00:16.381Z,8.40
2018-11-29T07:02:44.154Z,8.40
2018-11-29T07:05:11.827Z,8.40
2018-11-29T07:07:39.590Z,8.40
2018-11-29T07:12:37.655Z,8.40
2018-11-29T07:15:10.315Z,8.40
2018-11-29T07:17:38.251Z,8.30
2018-11-29T07:20:16.297Z,8.30
2018-11-29T07:25:11.998Z,8.30
2018-11-29T07:27:39.839Z,8.30
2018-11-29T07:30:11.405Z,8.30
2018-11-29T07:32:39.229Z,8.30
2018-11-29T07:35:08.128Z,8.30
2018-11-29T07:37:35.978Z,8.30
2018-11-29T07:40:04.560Z,8.30
2018-11-29T07:42:32.258Z,8.40
2018-11-29T07:45:00.108Z,8.40
2018-11-29T07:47:27.847Z,8.40
2018-11-29T07:49:55.604Z,8.40
2018-11-29T07:52:23.330Z,8.50
2018-11-29T07:54:51.051Z,8.50
2018-11-29T07:57:18.793Z,8.50
2018-11-29T07:59:46.491Z,8.60
2018-11-29T08:02:14.329Z,8.60
2018-11-29T08:04:42.124Z,8.70
2018-11-29T08:07:09.935Z,8.70
2018-11-29T08:09:37.786Z,8.80
2018-11-29T08:12:05.585Z,8.80
2018-11-29T08:14:33.284Z,8.70
2018-11-29T08:17:00.988Z,8.70
2018-11-29T08:19:28.666Z,8.70
2018-11-29T08:21:56.411Z,8.70
2018-11-29T08:29:19.346Z,8.70
2018-11-29T08:34:15.004Z,8.70
2018-11-29T08:36:42.724Z,8.70
2018-11-29T08:41:38.667Z,8.80
2018-11-29T08:44:06.389Z,8.80
2018-11-29T08:46:34.112Z,8.70
2018-11-29T08:49:01.875Z,8.80
2018-11-29T08:53:57.349Z,8.80
2018-11-29T08:56:25.083Z,8.80
2018-11-29T08:58:52.856Z,8.90
2018-11-29T09:01:20.546Z,8.90
2018-11-29T09:03:48.579Z,9.00
2018-11-29T09:06:16.425Z,9.00
2018-11-29T09:08:44.167Z,9.00
2018-11-29T09:11:11.983Z,9.00
2018-11-29T09:13:39.765Z,9.10
2018-11-29T09:18:35.126Z,9.20
2018-11-29T09:28:27.197Z,9.40
2018-11-29T09:30:54.878Z,9.40
2018-11-29T09:33:22.602Z,9.40
2018-11-29T09:35:50.404Z,9.40
2018-11-29T09:38:18.118Z,9.50
2018-11-29T09:40:45.788Z,9.50
2018-11-29T09:45:41.177Z,9.40
2018-11-29T09:48:08.901Z,9.40
2018-11-29T09:50:36.748Z,9.40
2018-11-29T09:53:05.092Z,9.40
2018-11-29T09:55:32.794Z,9.40
2018-11-29T09:58:00.567Z,9.30
2018-11-29T10:03:01.304Z,9.40
2018-11-29T10:07:58.942Z,9.30
2018-11-29T10:10:26.693Z,9.30
2018-11-29T10:12:54.455Z,9.30
2018-11-29T10:20:17.799Z,9.20
2018-11-29T10:22:45.613Z,9.30
2018-11-29T10:25:14.129Z,9.30
2018-11-29T10:27:43.680Z,9.40
2018-11-29T10:32:40.668Z,9.30
2018-11-29T10:35:08.674Z,9.40
2018-11-29T10:40:08.120Z,9.40
2018-11-29T10:42:35.845Z,9.30
2018-11-29T10:45:03.802Z,9.20
2018-11-29T10:47:33.319Z,9.20
2018-11-29T10:50:01.109Z,9.20
2018-11-29T10:57:24.054Z,9.20
2018-11-29T10:59:51.745Z,9.20
2018-11-29T11:02:25.266Z,9.10
2018-11-29T11:04:53.048Z,9.20
2018-11-29T11:07:20.763Z,9.20
2018-11-29T11:09:48.552Z,9.20
2018-11-29T11:17:19.705Z,9.10
2018-11-29T11:19:47.440Z,9.10
2018-11-29T11:22:15.130Z,9.00
2018-11-29T11:24:42.952Z,9.00
2018-11-29T11:27:10.639Z,8.90
2018-11-29T11:29:40.114Z,8.90
2018-11-29T11:34:35.522Z,8.80
2018-11-29T11:37:03.434Z,8.70
2018-11-29T11:41:59.045Z,8.70
2018-11-29T11:44:26.770Z,8.70
2018-11-29T11:46:54.433Z,8.60
2018-11-29T11:49:22.236Z,8.50
2018-11-29T11:51:50.530Z,8.50
2018-11-29T11:54:18.402Z,8.50
2018-11-29T11:56:46.100Z,8.50
2018-11-29T11:59:13.805Z,8.40
2018-11-29T12:01:41.585Z,8.40
2018-11-29T12:04:09.371Z,8.40
2018-11-29T12:06:37.094Z,8.40
2018-11-29T12:11:35.990Z,8.50
2018-11-29T12:14:03.782Z,8.50
2018-11-29T12:16:31.551Z,8.50
2018-11-29T12:19:02.308Z,8.60
2018-11-29T12:21:27.067Z,8.60
2018-11-29T12:23:54.835Z,8.70
2018-11-29T12:26:22.504Z,8.70
2018-11-29T12:28:50.189Z,8.70
2018-11-29T12:31:17.911Z,8.80
2018-11-29T12:33:45.728Z,8.80
2018-11-29T12:36:13.448Z,8.90
2018-11-29T12:46:04.229Z,8.90
2018-11-29T12:48:32.006Z,8.90
2018-11-29T12:50:59.809Z,9.00
2018-11-29T12:53:30.067Z,8.90
2018-11-29T12:55:57.879Z,9.00
2018-11-29T12:58:25.574Z,9.00
2018-11-29T13:00:53.786Z,9.00
2018-11-29T13:03:21.498Z,8.90
2018-11-29T13:05:49.238Z,8.80
2018-11-29T13:08:17.025Z,8.80
2018-11-29T13:10:44.875Z,8.80
2018-11-29T13:13:12.843Z,8.90
2018-11-29T13:15:40.579Z,8.80
2018-11-29T13:23:04.284Z,8.80
2018-11-29T13:25:32.070Z,8.70
2018-11-29T13:27:59.795Z,8.70
2018-11-29T13:30:28.710Z,8.70
2018-11-29T13:32:56.766Z,8.70
2018-11-29T13:35:34.862Z,8.70
2018-11-29T13:38:15.886Z,8.70
2018-11-29T13:45:41.168Z,8.70
2018-11-29T13:53:04.886Z,8.80
2018-11-29T14:05:24.356Z,8.90
2018-11-29T14:12:49.315Z,8.90
2018-11-29T14:15:18.916Z,8.90
2018-11-29T14:17:48.407Z,9.00
2018-11-29T14:22:43.833Z,9.00
2018-11-29T14:25:15.361Z,9.10
2018-11-29T14:27:46.427Z,9.20
2018-11-29T14:30:16.462Z,9.20
2018-11-29T14:37:39.602Z,9.40
2018-11-29T14:42:39.691Z,9.50
2018-11-29T14:45:08.960Z,9.50
2018-11-29T14:47:36.693Z,9.50
2018-11-29T14:50:14.606Z,9.50
2018-11-29T14:55:10.468Z,9.50
2018-11-29T14:57:38.380Z,9.50
2018-11-29T15:00:08.515Z,9.50
2018-11-29T15:02:36.452Z,9.50
2018-11-29T15:05:10.908Z,9.50
2018-11-29T15:07:38.713Z,9.50
2018-11-29T15:10:07.607Z,9.40
2018-11-29T15:12:35.370Z,9.40
2018-11-29T15:15:03.242Z,9.30
2018-11-29T15:17:31.053Z,9.30
2018-11-29T15:19:58.818Z,9.20
2018-11-29T15:24:54.210Z,9.20
2018-11-29T15:27:21.889Z,9.20
2018-11-29T15:29:49.656Z,9.20
2018-11-29T15:32:17.386Z,9.20
2018-11-29T15:34:45.109Z,9.20
2018-11-29T15:39:40.834Z,9.20
2018-11-29T15:42:10.193Z,9.20
2018-11-29T15:47:05.720Z,9.10
2018-11-29T15:49:33.386Z,9.00
2018-11-29T15:52:01.070Z,9.00
2018-11-29T15:54:28.770Z,8.90
2018-11-29T15:56:56.447Z,8.90
2018-11-29T15:59:24.196Z,8.90
2018-11-29T16:09:14.796Z,8.80
2018-11-29T16:11:42.484Z,8.80
2018-11-29T16:14:10.334Z,8.80
2018-11-29T16:19:06.772Z,8.70
2018-11-29T16:21:34.455Z,8.70
2018-11-29T16:24:02.176Z,8.70
2018-11-29T16:26:30.326Z,8.80
2018-11-29T16:28:58.043Z,8.70
2018-11-29T16:31:25.860Z,8.80
2018-11-29T16:33:53.726Z,8.80
2018-11-29T16:38:51.326Z,8.90
2018-11-29T16:41:20.186Z,8.90
2018-11-29T16:43:48.984Z,9.00
2018-11-29T16:53:40.171Z,9.00
2018-11-29T16:56:07.918Z,9.00
2018-11-29T16:58:35.797Z,9.00
2018-11-29T17:01:09.041Z,9.10
2018-11-29T17:03:37.803Z,9.00
2018-11-29T17:06:05.803Z,9.00
2018-11-29T17:08:33.575Z,9.00
2018-11-29T17:13:28.975Z,9.00
2018-11-29T17:15:56.853Z,8.90
2018-11-29T17:18:24.679Z,8.90
2018-11-29T17:20:52.381Z,8.90
2018-11-29T17:28:15.523Z,8.90
2018-11-29T17:30:43.354Z,8.90
2018-11-29T17:35:38.958Z,8.80
2018-11-29T17:38:06.759Z,8.70
2018-11-29T17:40:35.191Z,8.70
2018-11-29T17:43:02.873Z,8.70
2018-11-29T17:45:30.746Z,8.70
2018-11-29T17:53:00.460Z,8.70
2018-11-29T17:55:28.192Z,8.60
2018-11-29T18:00:24.685Z,8.50
2018-11-29T18:02:52.407Z,8.50
2018-11-29T18:05:20.214Z,8.60
2018-11-29T18:07:48.216Z,8.60
2018-11-29T18:10:17.000Z,8.60
2018-11-29T18:12:46.333Z,8.60
2018-11-29T18:15:17.996Z,8.70
2018-11-29T18:20:13.631Z,8.80
2018-11-29T18:22:41.507Z,8.80
2018-11-29T18:27:37.864Z,8.90
2018-11-29T18:30:17.467Z,8.90
2018-11-29T18:35:13.431Z,8.90
2018-11-29T18:42:37.679Z,9.00
2018-11-29T18:45:14.772Z,9.00
2018-11-29T18:50:12.342Z,8.90
2018-11-29T18:52:40.435Z,8.90
2018-11-29T18:55:08.287Z,9.00
2018-11-29T18:57:36.137Z,9.00
2018-11-29T19:00:07.399Z,8.90
2018-11-29T19:02:35.134Z,8.90
2018-11-29T19:05:04.392Z,9.00
2018-11-29T19:07:32.411Z,9.00
2018-11-29T19:10:00.149Z,9.00
2018-11-29T19:12:27.888Z,10.60
2018-11-29T19:14:57.466Z,8.90
2018-11-29T19:17:25.234Z,8.90
2018-11-29T19:19:53.106Z,8.90
2018-11-29T19:22:20.826Z,8.80
2018-11-29T19:27:16.251Z,8.80
2018-11-29T19:32:11.670Z,8.80
2018-11-29T19:34:39.372Z,9.00
2018-11-29T19:37:07.033Z,9.00
2018-11-29T19:39:34.787Z,9.10
2018-11-29T19:42:03.489Z,9.10
2018-11-29T19:44:31.204Z,9.10
2018-11-29T19:46:58.889Z,9.10
2018-11-29T19:49:26.550Z,9.10
2018-11-29T19:51:54.663Z,9.10
2018-11-29T19:54:22.451Z,9.10
2018-11-29T19:56:50.260Z,9.10
2018-11-29T19:59:17.986Z,9.10
2018-11-29T20:01:45.804Z,9.10
2018-11-29T20:04:13.498Z,9.10
2018-11-29T20:06:41.277Z,9.10
2018-11-29T20:09:09.439Z,9.10
2018-11-29T20:11:37.474Z,9.10
2018-11-29T20:14:05.370Z,9.10
2018-11-29T20:19:00.953Z,9.10
2018-11-29T20:21:28.904Z,9.10
2018-11-29T20:23:56.586Z,9.10
2018-11-29T20:28:51.955Z,9.20
2018-11-29T20:31:19.684Z,9.20
2018-11-29T20:33:47.417Z,9.20
2018-11-29T20:36:15.369Z,9.10
2018-11-29T20:38:43.067Z,9.10
2018-11-29T20:41:10.813Z,9.10
2018-11-29T20:43:38.882Z,9.10
2018-11-29T20:46:06.627Z,9.10
2018-11-29T20:48:34.385Z,9.10
2018-11-29T20:51:02.164Z,9.10
2018-11-29T20:58:26.964Z,9.10
2018-11-29T21:00:54.993Z,9.10
2018-11-29T21:03:22.909Z,9.10
2018-11-29T21:05:50.626Z,9.10
2018-11-29T21:15:42.220Z,9.00
2018-11-29T21:20:39.265Z,9.00
2018-11-29T21:25:35.645Z,9.00
2018-11-29T21:28:03.450Z,9.00
2018-11-29T21:30:31.185Z,9.00
2018-11-29T21:32:59.003Z,9.00
2018-11-29T21:35:26.712Z,9.00
2018-11-29T21:37:54.557Z,9.00
2018-11-29T21:40:24.618Z,9.10
2018-11-29T21:42:52.376Z,9.10
2018-11-29T21:45:20.187Z,9.10
2018-11-29T21:52:43.233Z,9.10
2018-11-29T21:55:11.014Z,9.10
2018-11-29T21:57:38.844Z,9.10
2018-11-29T22:00:24.342Z,9.10
2018-11-29T22:02:54.513Z,9.20
2018-11-29T22:05:26.614Z,9.20
2018-11-29T22:12:49.721Z,9.30
2018-11-29T22:15:17.488Z,9.30
2018-11-29T22:18:50.717Z,9.30
2018-11-29T22:21:18.436Z,9.20
2018-11-29T22:23:46.166Z,9.20
2018-11-29T22:28:42.367Z,9.20
2018-11-29T22:33:37.753Z,9.20
2018-11-29T22:36:05.833Z,9.20
2018-11-29T22:41:01.343Z,9.20
2018-11-29T22:43:29.145Z,9.30
2018-11-29T22:53:22.445Z,9.30
2018-11-29T22:55:50.164Z,9.30
2018-11-29T22:58:17.850Z,9.30
2018-11-29T23:00:51.938Z,9.30
2018-11-29T23:03:19.956Z,9.30
2018-11-29T23:05:47.800Z,9.30
2018-11-29T23:10:43.194Z,9.30
2018-11-29T23:13:10.962Z,9.30
2018-11-29T23:15:38.725Z,9.30
2018-11-29T23:18:06.750Z,9.30
2018-11-29T23:20:34.474Z,9.30
2018-11-29T23:23:02.224Z,9.30
2018-11-29T23:25:30.031Z,9.30
2018-11-29T23:27:59.579Z,9.30
2018-11-29T23:32:55.030Z,9.30
2018-11-29T23:35:22.791Z,9.30
2018-11-29T23:37:50.539Z,9.20
2018-11-29T23:40:18.307Z,9.30
2018-11-29T23:42:46.268Z,9.20
2018-11-29T23:45:14.183Z,9.30
2018-11-29T23:47:42.098Z,9.30
2018-11-29T23:50:15.986Z,9.30
2018-11-29T23:55:20.961Z,9.40
2018-11-29T23:57:48.687Z,9.40
